Historyczne dane pomiarowe

Dodano dane terminowe – wersja testowa.

Dane z okresu 1951-2019

Wersja bazy: 1.34 [2019-03-16, lista zmian], aktualizacja planowana na 2019-04-15

Dane meteo z obszaru Polski uzyskane na podstawie danych udostępnionych przez Instytut Meteorologii i Gospodarki Wodnej – Państwowy Instytut Badawczy.

 

Wybierz Datę:    

       

TemperaturaWilgotnośćWiatrCiśnienieOpadyŚniegCzas trwania zjawisk
 Stacja t tx tn tng RH VA  wxwx mslp ppp RRR   cm mm wxwxwxwxwxwxwx
1999-08-14 14.3 21.1 7.6- 77.3- 4.0 1.7---- 0.0------------
1999-08-13 14.2 21.3 6.8- 83.5- 4.0 1.0---- 0.0------------
1999-08-12 16.9 21.2 14.7- 81.8- 6.3 1.7---- 0.0------------
1999-08-11 20.3 24.9 17.2- 83.3- 3.7 1.3---- 0.3------------
1999-08-10 20.6 28.9 14.1- 87.8- 5.7 1.0---- 8.9------------
1999-08-09 22.0 30.8 14.2- 76.8- 4.0 1.3---- 3.1------------
1999-08-08 22.5 29.1 16.1- 86.0- 5.3 1.0---- 0.0------------
1999-08-07 20.0 29.3 10.9- 82.0- 1.7 0.0---- 0.0------------
1999-08-06 18.4 25.3 12.9- 88.0- 6.7 0.3---- 0.0------------
1999-08-05 18.1 25.9 9.2- 80.8- 4.3 0.7---- 0.5------------
1999-08-04 17.3 24.4 8.7- 84.5- 3.0 0.7---- 0.0------------
1999-08-03 16.7 24.0 10.9- 86.5- 5.0 0.3---- 0.0------------
1999-08-02 16.8 21.3 13.1- 89.0- 7.3 0.7---- 0.4------------
1999-08-01 18.7 25.4 12.9- 80.8- 3.3 1.3---- 0.4------------
1999-07-31 19.2 24.5 13.5- 61.3- 3.0 2.0---- 0.0------------
1999-07-30 18.3 24.5 11.1- 77.0- 2.3 2.0---- 0.0------------
1999-07-29 17.2 24.0 11.3- 70.3- 2.0 2.3---- 0.0------------
1999-07-28 17.7 23.0 14.7- 91.0- 4.0 1.0---- 7.8------------
1999-07-27 19.9 24.5 16.3- 89.3- 6.0 1.7---- 0.0------------
1999-07-26 21.2 27.5 13.0- 76.0- 3.3 1.7---- 0.0------------
1999-07-25 19.1 25.1 10.5- 81.3- 2.0 3.0---- 0.0------------
1999-07-24 16.6 21.9 9.7- 89.3- 4.3 0.3---- 0.0------------
1999-07-23 15.9 20.5 13.7- 90.8- 7.3 1.7---- 3.8------------
1999-07-22 20.3 24.7 17.2- 82.5- 5.3 1.7---- 1.1------------
1999-07-21 21.3 29.3 12.7- 78.0- 4.0 2.0---- 0.0------------
1999-07-20 21.7 29.1 12.1- 73.0- 2.7 1.0---- 0.0------------
1999-07-19 19.7 27.7 10.0- 81.5- 2.7 0.7---- 0.0------------
1999-07-18 17.4 24.6 8.2- 81.8- 4.7 0.7---- 0.0------------
1999-07-17 17.4 22.0 13.0- 88.8- 3.0 0.7---- 0.0------------
1999-07-16 15.4 21.6 9.9- 92.8- 5.0 2.0---- 7.3------------
1999-07-15 17.9 22.4 14.7- 85.0- 5.3 2.0---- 6.3------------
1999-07-14 20.5 26.5 16.3- 84.8- 6.7 2.3---- 3.4------------
1999-07-13 19.6 24.8 15.0- 82.5- 6.0 1.3---- 9.2------------
1999-07-12 20.4 27.4 16.6- 77.3- 4.7 2.0---- 2.4------------
1999-07-11 20.9 25.5 17.2- 61.0- 3.0 2.7---- 0.0------------
1999-07-10 20.1 24.8 16.4- 76.3- 3.7 3.7---- 0.0------------
1999-07-09 21.0 24.9 18.4- 88.5- 6.3 3.0---- 0.0------------
1999-07-08 20.1 24.6 17.4- 94.0- 7.0 2.7---- 0.0------------
1999-07-07 22.0 28.3 17.0- 88.0- 5.3 1.3---- 28.3------------
1999-07-06 24.0 31.7 16.0- 72.0- 2.3 2.3---- 0.0------------
1999-07-05 22.9 31.3 13.7- 68.0- 1.0 1.7---- 0.0------------
1999-07-04 21.9 29.5 12.1- 72.5- 1.7 1.0---- 0.0------------
1999-07-03 19.8 26.3 14.1- 86.5- 3.3 0.3---- 0.0------------
1999-07-02 19.3 25.0 13.1- 88.3- 6.0 1.0---- 2.2------------
1999-07-01 18.9 25.4 11.3- 76.3- 3.0 0.7---- 2.4------------
1999-06-30 19.3 25.5 12.5- 80.8- 2.3 1.3---- 0.0------------
1999-06-29 19.5 26.1 13.7- 81.5- 5.7 1.0---- 0.0------------
1999-06-28 20.1 27.9 12.6- 69.5- 2.0 1.7---- 0.0------------
1999-06-27 18.6 25.4 10.0- 70.0- 0.3 2.0---- 0.0------------
1999-06-26 15.3 23.0 6.2- 79.0- 3.3 1.3---- 0.0------------
1999-06-25 13.9 19.4 10.2- 88.8- 5.3 1.3---- 0.0------------
1999-06-24 10.9 12.6 8.8- 98.0- 8.0 1.3---- 12.0------------
1999-06-23 9.8 11.7 8.3- 93.0- 8.0 1.7---- 13.1------------
1999-06-22 13.5 16.8 10.5- 97.8- 8.0 2.7---- 48.8------------
1999-06-21 18.1 24.0 15.2- 87.5- 6.3 0.7---- 0.4------------
1999-06-20 18.7 24.0 14.3- 92.8- 3.7 1.0---- 24.0------------
1999-06-19 18.1 24.0 14.0- 89.3- 5.0 1.7---- 1.7------------
1999-06-18 18.0 20.0 16.6- 96.8- 8.0 1.3---- 15.3------------
1999-06-17 18.7 23.7 14.7- 91.0- 7.3 1.3---- 0.4------------
1999-06-16 18.2 22.6 14.6- 95.0- 7.0 0.7---- 17.1------------
271.0 ms

 

Źródłem pochodzenia danych jest Instytut Meteorologii i Gospodarki Wodnej – Państwowy Instytut Badawczy. Dane Instytutu Meteorologii i Gospodarki Wodnej – Państwowego Instytutu Badawczego zostały przetworzone.

Dane źródłowe można odnaleźć na stronie https://dane.imgw.pl